CXA6837 ZUCK-ZSWZ
Flight info
| Callsign | CXA6837 |
|---|---|
| Flight time | N/A |
| Altitude | 35100 |
| Route | OLNER B213 WHA R343 SAGUD W50 XSH DCT DYTES DCT KAKBA DCT TOCEF DCT SHR DCT BZ A470 KAGED |
| Aircraft | A320/M-SDE3FGHIRWY/LB1 |
Departure
| Time | 2026-05-05 01:27 |
|---|---|
| Airport | Chongqing Jiangbei International Airport (ZUCK) |
Arrival
| Time | N/A |
|---|---|
| Airport | Wenzhou Longwan International Airport (ZSWZ) |
| Time | Latitude | Longitude | Altitude | Speed | Heading |
|---|---|---|---|---|---|
| 2026-05-05 01:23 | 29.72381 | 106.66221 | 1335 ft | 8 kts | 107° |
| 2026-05-05 01:24 | 29.72302 | 106.66240 | 1332 ft | 16 kts | 199° |
| 2026-05-05 01:24 | 29.72178 | 106.66190 | 1333 ft | 21 kts | 200° |
| 2026-05-05 01:24 | 29.72036 | 106.66141 | 1334 ft | 22 kts | 195° |
| 2026-05-05 01:24 | 29.71891 | 106.66092 | 1340 ft | 22 kts | 197° |
| 2026-05-05 01:25 | 29.71743 | 106.66039 | 1336 ft | 23 kts | 198° |
| 2026-05-05 01:25 | 29.71597 | 106.65983 | 1341 ft | 16 kts | 199° |
| 2026-05-05 01:25 | 29.71508 | 106.65969 | 1337 ft | 9 kts | 161° |
| 2026-05-05 01:25 | 29.71480 | 106.66021 | 1337 ft | 7 kts | 104° |
| 2026-05-05 01:26 | 29.71470 | 106.66068 | 1337 ft | 5 kts | 102° |
| 2026-05-05 01:26 | 29.71463 | 106.66112 | 1338 ft | 10 kts | 93° |
| 2026-05-05 01:26 | 29.71549 | 106.66179 | 1336 ft | 21 kts | 17° |
| 2026-05-05 01:26 | 29.71874 | 106.66297 | 1333 ft | 83 kts | 16° |
| 2026-05-05 01:27 | 29.72627 | 106.66555 | 1330 ft | 140 kts | 17° |
| 2026-05-05 01:27 | 29.73707 | 106.66930 | 1430 ft | 174 kts | 19° |
| 2026-05-05 01:27 | 29.74823 | 106.67316 | 2214 ft | 167 kts | 18° |
| 2026-05-05 01:27 | 29.75933 | 106.67699 | 2820 ft | 168 kts | 18° |
| 2026-05-05 01:28 | 29.77050 | 106.68211 | 3317 ft | 181 kts | 32° |
| 2026-05-05 01:28 | 29.78194 | 106.69002 | 3618 ft | 203 kts | 34° |
| 2026-05-05 01:28 | 29.79458 | 106.69928 | 3934 ft | 227 kts | 34° |
| 2026-05-05 01:28 | 29.80841 | 106.70944 | 4270 ft | 248 kts | 33° |
| 2026-05-05 01:29 | 29.82367 | 106.72058 | 4653 ft | 270 kts | 33° |
| 2026-05-05 01:29 | 29.83993 | 106.73234 | 5416 ft | 280 kts | 32° |
| 2026-05-05 01:29 | 29.85657 | 106.74433 | 6318 ft | 283 kts | 34° |
| 2026-05-05 01:29 | 29.87159 | 106.75875 | 7098 ft | 287 kts | 48° |
| 2026-05-05 01:30 | 29.88401 | 106.77698 | 7889 ft | 291 kts | 54° |
| 2026-05-05 01:30 | 29.89601 | 106.79587 | 8677 ft | 296 kts | 53° |
| 2026-05-05 01:30 | 29.90827 | 106.81518 | 9443 ft | 300 kts | 53° |
| 2026-05-05 01:30 | 29.92071 | 106.83474 | 10142 ft | 305 kts | 53° |
| 2026-05-05 01:31 | 29.93366 | 106.85508 | 10468 ft | 325 kts | 53° |
| 2026-05-05 01:31 | 29.94755 | 106.87690 | 10645 ft | 349 kts | 53° |
| 2026-05-05 01:31 | 29.96229 | 106.90004 | 10945 ft | 365 kts | 53° |
| 2026-05-05 01:31 | 29.97747 | 106.92390 | 11565 ft | 370 kts | 53° |
| 2026-05-05 01:32 | 29.99272 | 106.94789 | 12285 ft | 372 kts | 52° |
| 2026-05-05 01:32 | 30.00809 | 106.97205 | 13012 ft | 374 kts | 52° |
| 2026-05-05 01:32 | 30.02355 | 106.99634 | 13746 ft | 376 kts | 52° |
| 2026-05-05 01:32 | 30.03887 | 107.02047 | 14365 ft | 378 kts | 52° |
| 2026-05-05 01:33 | 30.05443 | 107.04505 | 14974 ft | 381 kts | 52° |
| 2026-05-05 01:33 | 30.07029 | 107.07011 | 15590 ft | 383 kts | 51° |
| 2026-05-05 01:33 | 30.08555 | 107.09548 | 16198 ft | 387 kts | 57° |
| 2026-05-05 01:33 | 30.09638 | 107.12370 | 16799 ft | 394 kts | 70° |
| 2026-05-05 01:34 | 30.10160 | 107.15500 | 17376 ft | 401 kts | 83° |
| 2026-05-05 01:34 | 30.10042 | 107.18743 | 17946 ft | 409 kts | 97° |
| 2026-05-05 01:34 | 30.09317 | 107.21952 | 18488 ft | 415 kts | 104° |
| 2026-05-05 01:34 | 30.08460 | 107.25156 | 18940 ft | 420 kts | 104° |
| 2026-05-05 01:35 | 30.07591 | 107.28395 | 19396 ft | 424 kts | 104° |
| 2026-05-05 01:35 | 30.06714 | 107.31670 | 19850 ft | 429 kts | 104° |
| 2026-05-05 01:35 | 30.05832 | 107.34970 | 20290 ft | 433 kts | 103° |
| 2026-05-05 01:35 | 30.04942 | 107.38307 | 20720 ft | 438 kts | 103° |
| 2026-05-05 01:36 | 30.04043 | 107.41680 | 21147 ft | 442 kts | 103° |
| 2026-05-05 01:36 | 30.03131 | 107.45089 | 21551 ft | 446 kts | 103° |
| 2026-05-05 01:36 | 30.02205 | 107.48532 | 21972 ft | 451 kts | 103° |
| 2026-05-05 01:36 | 30.01272 | 107.51990 | 22378 ft | 454 kts | 103° |
| 2026-05-05 01:37 | 30.00325 | 107.55494 | 22754 ft | 459 kts | 103° |
| 2026-05-05 01:37 | 29.99373 | 107.59021 | 23128 ft | 463 kts | 103° |
| 2026-05-05 01:37 | 29.98423 | 107.62538 | 23507 ft | 467 kts | 103° |
| 2026-05-05 01:37 | 29.97452 | 107.66120 | 23821 ft | 470 kts | 103° |
| 2026-05-05 01:38 | 29.96474 | 107.69732 | 24118 ft | 473 kts | 102° |
| 2026-05-05 01:38 | 29.95491 | 107.73366 | 24414 ft | 476 kts | 103° |
| 2026-05-05 01:38 | 29.94580 | 107.77034 | 24699 ft | 475 kts | 97° |
| 2026-05-05 01:38 | 29.94107 | 107.80787 | 24958 ft | 471 kts | 88° |
| 2026-05-05 01:39 | 29.94145 | 107.84530 | 25267 ft | 466 kts | 78° |
| 2026-05-05 01:39 | 29.94675 | 107.88188 | 25575 ft | 460 kts | 69° |
| 2026-05-05 01:39 | 29.95559 | 107.91725 | 25909 ft | 460 kts | 66° |
| 2026-05-05 01:39 | 29.96467 | 107.95277 | 26229 ft | 463 kts | 67° |
| 2026-05-05 01:40 | 29.97371 | 107.98848 | 26520 ft | 465 kts | 67° |
| 2026-05-05 01:40 | 29.98275 | 108.02436 | 26803 ft | 467 kts | 66° |
| 2026-05-05 01:40 | 29.99182 | 108.06048 | 27105 ft | 469 kts | 66° |
| 2026-05-05 01:40 | 30.00091 | 108.09667 | 27378 ft | 471 kts | 66° |
| 2026-05-05 01:41 | 30.01005 | 108.13312 | 27655 ft | 473 kts | 66° |
| 2026-05-05 01:41 | 30.01918 | 108.16970 | 27903 ft | 475 kts | 66° |
| 2026-05-05 01:41 | 30.02828 | 108.20631 | 28192 ft | 477 kts | 66° |
| 2026-05-05 01:41 | 30.03749 | 108.24322 | 28446 ft | 478 kts | 66° |
| 2026-05-05 01:42 | 30.04672 | 108.28013 | 28683 ft | 480 kts | 66° |
| 2026-05-05 01:42 | 30.05594 | 108.31713 | 28923 ft | 480 kts | 66° |
| 2026-05-05 01:42 | 30.06506 | 108.35372 | 29156 ft | 481 kts | 66° |
| 2026-05-05 01:42 | 30.07425 | 108.39066 | 29501 ft | 480 kts | 66° |
| 2026-05-05 01:43 | 30.08349 | 108.42776 | 29836 ft | 479 kts | 65° |
| 2026-05-05 01:43 | 30.09265 | 108.46476 | 30184 ft | 478 kts | 65° |
| 2026-05-05 01:43 | 30.10177 | 108.50166 | 30456 ft | 477 kts | 65° |
| 2026-05-05 01:43 | 30.11078 | 108.53732 | 31324 ft | 452 kts | 65° |
| 2026-05-05 01:44 | 30.11657 | 108.57171 | 32328 ft | 426 kts | 71° |
| 2026-05-05 01:44 | 30.12137 | 108.60451 | 33044 ft | 402 kts | 70° |
| 2026-05-05 01:44 | 30.12845 | 108.63549 | 33376 ft | 394 kts | 58° |
| 2026-05-05 01:44 | 30.13862 | 108.66356 | 34130 ft | 371 kts | 54° |
| 2026-05-05 01:45 | 30.14945 | 108.69017 | 34497 ft | 363 kts | 53° |
| 2026-05-05 01:45 | 30.15988 | 108.71653 | 34721 ft | 362 kts | 55° |
| 2026-05-05 01:45 | 30.16958 | 108.74365 | 34920 ft | 364 kts | 58° |
| 2026-05-05 01:45 | 30.17839 | 108.77120 | 35002 ft | 369 kts | 60° |
| 2026-05-05 01:46 | 30.19407 | 108.82804 | 35122 ft | 375 kts | 63° |
| 2026-05-05 01:46 | 30.20224 | 108.85776 | 34596 ft | 395 kts | 61° |
| 2026-05-05 01:46 | 30.21126 | 108.88831 | 34352 ft | 411 kts | 61° |
| 2026-05-05 01:47 | 30.22081 | 108.91999 | 34231 ft | 422 kts | 61° |
| 2026-05-05 01:47 | 30.23026 | 108.95260 | 34228 ft | 432 kts | 63° |
| 2026-05-05 01:47 | 30.24754 | 109.02081 | 34227 ft | 450 kts | 66° |
| 2026-05-05 01:48 | 30.26390 | 109.09105 | 34460 ft | 457 kts | 66° |
| 2026-05-05 01:48 | 30.27221 | 109.12648 | 34686 ft | 456 kts | 66° |
| 2026-05-05 01:48 | 30.28069 | 109.16187 | 34921 ft | 456 kts | 65° |
| 2026-05-05 01:49 | 30.28932 | 109.19732 | 35079 ft | 459 kts | 65° |
| 2026-05-05 01:49 | 30.29810 | 109.23302 | 35123 ft | 464 kts | 65° |
| 2026-05-05 01:49 | 30.31613 | 109.30590 | 35129 ft | 477 kts | 66° |
| 2026-05-05 01:50 | 30.33439 | 109.38037 | 35107 ft | 485 kts | 66° |
| 2026-05-05 01:50 | 30.34960 | 109.44304 | 35120 ft | 487 kts | 66° |
| 2026-05-05 01:51 | 30.36778 | 109.51865 | 35120 ft | 487 kts | 66° |
| 2026-05-05 01:51 | 30.38589 | 109.59421 | 35126 ft | 487 kts | 66° |
| 2026-05-05 01:52 | 30.39868 | 109.67196 | 35123 ft | 493 kts | 73° |
| 2026-05-05 01:52 | 30.41019 | 109.75042 | 35131 ft | 493 kts | 72° |
| 2026-05-05 01:53 | 30.42176 | 109.82869 | 35135 ft | 493 kts | 72° |
| 2026-05-05 01:53 | 30.43319 | 109.90640 | 35138 ft | 493 kts | 73° |
| 2026-05-05 01:54 | 30.44459 | 109.98472 | 35135 ft | 493 kts | 73° |
| 2026-05-05 01:54 | 30.45587 | 110.06304 | 35135 ft | 493 kts | 73° |
| 2026-05-05 01:55 | 30.46717 | 110.14143 | 35131 ft | 492 kts | 73° |
| 2026-05-05 01:55 | 30.47843 | 110.21988 | 35135 ft | 493 kts | 73° |
| 2026-05-05 01:56 | 30.48954 | 110.29771 | 35125 ft | 493 kts | 73° |
| 2026-05-05 01:56 | 30.50068 | 110.37623 | 35114 ft | 493 kts | 74° |
| 2026-05-05 01:57 | 30.51180 | 110.45458 | 35116 ft | 493 kts | 74° |
| 2026-05-05 01:57 | 30.52291 | 110.53305 | 35116 ft | 493 kts | 74° |
| 2026-05-05 01:58 | 30.53389 | 110.61167 | 35111 ft | 493 kts | 74° |
| 2026-05-05 01:58 | 30.54490 | 110.69024 | 35113 ft | 494 kts | 74° |
| 2026-05-05 01:59 | 30.55586 | 110.76880 | 35080 ft | 494 kts | 75° |
| 2026-05-05 01:59 | 30.56681 | 110.84756 | 35088 ft | 494 kts | 75° |
| 2026-05-05 02:00 | 30.57765 | 110.92631 | 35091 ft | 494 kts | 75° |
| 2026-05-05 02:00 | 30.58840 | 111.00507 | 35082 ft | 494 kts | 75° |
| 2026-05-05 02:01 | 30.59919 | 111.08383 | 35078 ft | 494 kts | 75° |
| 2026-05-05 02:01 | 30.60992 | 111.16268 | 35079 ft | 495 kts | 76° |
| 2026-05-05 02:02 | 30.62060 | 111.24160 | 35083 ft | 495 kts | 76° |
| 2026-05-05 02:02 | 30.63120 | 111.32017 | 35080 ft | 495 kts | 76° |
| 2026-05-05 02:03 | 30.64180 | 111.39910 | 35077 ft | 495 kts | 76° |
| 2026-05-05 02:03 | 30.65204 | 111.47818 | 35071 ft | 497 kts | 79° |
| 2026-05-05 02:04 | 30.65641 | 111.55864 | 35074 ft | 499 kts | 82° |
| 2026-05-05 02:04 | 30.66061 | 111.63903 | 35080 ft | 499 kts | 82° |
| 2026-05-05 02:05 | 30.66478 | 111.71959 | 35078 ft | 500 kts | 82° |
| 2026-05-05 02:05 | 30.66887 | 111.80019 | 35079 ft | 500 kts | 82° |
| 2026-05-05 02:06 | 30.67293 | 111.88094 | 35081 ft | 500 kts | 82° |
| 2026-05-05 02:06 | 30.67697 | 111.96165 | 35082 ft | 500 kts | 82° |
| 2026-05-05 02:07 | 30.68183 | 112.04215 | 35083 ft | 499 kts | 81° |
| 2026-05-05 02:07 | 30.68766 | 112.12198 | 35082 ft | 499 kts | 81° |
| 2026-05-05 02:08 | 30.69347 | 112.20243 | 35083 ft | 499 kts | 81° |
| 2026-05-05 02:08 | 30.69894 | 112.28293 | 35081 ft | 500 kts | 82° |
| 2026-05-05 02:09 | 30.70419 | 112.36351 | 35082 ft | 500 kts | 82° |
| 2026-05-05 02:09 | 30.70943 | 112.44408 | 35085 ft | 500 kts | 82° |
| 2026-05-05 02:10 | 30.71476 | 112.52470 | 35085 ft | 500 kts | 82° |
| 2026-05-05 02:10 | 30.72004 | 112.60523 | 35088 ft | 500 kts | 82° |
| 2026-05-05 02:11 | 30.72512 | 112.68531 | 35086 ft | 500 kts | 82° |
| 2026-05-05 02:11 | 30.73016 | 112.76599 | 35085 ft | 500 kts | 82° |
| 2026-05-05 02:12 | 30.73774 | 112.88685 | 35087 ft | 500 kts | 82° |